createdAt,value
2023-04-27T00:00:44.522Z,95457.69
2023-04-27T00:03:11.316Z,95445.41
2023-04-27T00:05:39.390Z,95455.69
2023-04-27T00:08:06.583Z,95447.25
2023-04-27T00:10:33.433Z,95438.88
2023-04-27T00:13:00.740Z,95446.44
2023-04-27T00:15:28.197Z,95451.63
2023-04-27T00:17:55.062Z,95440.63
2023-04-27T00:20:21.796Z,95439.31
2023-04-27T00:22:48.399Z,95439.91
2023-04-27T00:25:15.070Z,95437.00
2023-04-27T00:27:41.820Z,95440.28
2023-04-27T00:30:09.812Z,95435.16
2023-04-27T00:32:36.575Z,95432.75
2023-04-27T00:35:03.421Z,95430.06
2023-04-27T00:37:29.971Z,95431.16
2023-04-27T00:39:56.883Z,95434.66
2023-04-27T00:42:23.572Z,95433.56
2023-04-27T00:44:51.158Z,95434.66
2023-04-27T00:47:17.974Z,95436.25
2023-04-27T00:49:45.046Z,95427.38
2023-04-27T00:52:11.822Z,95423.59
2023-04-27T00:54:38.848Z,95422.75
2023-04-27T00:57:05.589Z,95428.69
2023-04-27T00:59:32.291Z,95431.38
2023-04-27T01:01:59.739Z,95431.69
2023-04-27T01:04:26.855Z,95435.16
2023-04-27T01:06:53.792Z,95431.69
2023-04-27T01:09:20.920Z,95433.25
2023-04-27T01:11:49.814Z,95431.38
2023-04-27T01:14:16.479Z,95436.50
2023-04-27T01:16:44.293Z,95438.91
2023-04-27T01:19:11.234Z,95432.38
2023-04-27T01:21:38.359Z,95428.59
2023-04-27T01:24:08.827Z,95426.41
2023-04-27T01:26:37.673Z,95433.41
2023-04-27T01:29:04.370Z,95429.88
2023-04-27T01:31:31.234Z,95433.41
2023-04-27T01:33:57.902Z,95433.41
2023-04-27T01:36:24.616Z,95439.09
2023-04-27T01:38:51.397Z,95439.09
2023-04-27T01:41:18.049Z,95434.78
2023-04-27T01:43:44.702Z,95442.09
2023-04-27T01:46:13.921Z,95438.91
2023-04-27T01:48:41.339Z,95439.69
2023-04-27T01:51:08.011Z,95444.28
2023-04-27T01:53:35.189Z,95441.59
2023-04-27T01:56:01.922Z,95437.78
2023-04-27T01:58:28.830Z,95447.50
2023-04-27T02:00:55.479Z,95443.19
2023-04-27T02:03:22.397Z,95453.41
2023-04-27T02:05:50.426Z,95443.78
2023-04-27T02:08:17.213Z,95450.41
2023-04-27T02:10:44.915Z,95452.81
2023-04-27T02:13:11.681Z,95453.59
2023-04-27T02:15:38.290Z,95455.50
2023-04-27T02:18:05.064Z,95453.09
2023-04-27T02:20:32.974Z,95462.00
2023-04-27T02:23:00.858Z,95462.28
2023-04-27T02:25:27.577Z,95456.09
2023-04-27T02:27:54.724Z,95459.88
2023-04-27T02:30:21.903Z,95461.00
2023-04-27T02:32:49.143Z,95464.00
2023-04-27T02:35:15.816Z,95469.69
2023-04-27T02:37:42.483Z,95469.19
2023-04-27T02:40:09.588Z,95468.34
2023-04-27T02:42:36.380Z,95470.25
2023-04-27T02:45:03.195Z,95464.38
2023-04-27T02:47:29.972Z,95470.84
2023-04-27T02:49:56.776Z,95463.34
2023-04-27T02:52:23.935Z,95473.91
2023-04-27T02:54:50.554Z,95473.91
2023-04-27T02:57:17.247Z,95469.91
2023-04-27T02:59:44.032Z,95468.59
2023-04-27T03:02:10.652Z,95469.19
2023-04-27T03:04:37.392Z,95465.16
2023-04-27T03:07:04.516Z,95473.84
2023-04-27T03:09:31.090Z,95471.22
2023-04-27T03:11:57.699Z,95465.59
2023-04-27T03:14:24.292Z,95472.97
2023-04-27T03:16:51.711Z,95470.34
2023-04-27T03:19:18.316Z,95473.91
2023-04-27T03:21:44.916Z,95481.25
2023-04-27T03:24:11.522Z,95478.63
2023-04-27T03:26:38.158Z,95478.69
2023-04-27T03:29:04.836Z,95484.16
2023-04-27T03:31:31.502Z,95485.00
2023-04-27T03:33:58.498Z,95480.47
2023-04-27T03:36:25.074Z,95485.66
2023-04-27T03:38:51.617Z,95488.91
2023-04-27T03:41:18.686Z,95488.66
2023-04-27T03:43:45.267Z,95492.75
2023-04-27T03:46:12.053Z,95484.66
2023-04-27T03:48:38.685Z,95484.13
2023-04-27T03:51:05.858Z,95493.34
2023-04-27T03:53:32.928Z,95489.03
2023-04-27T03:56:02.996Z,95492.50
2023-04-27T03:58:29.840Z,95493.03
2023-04-27T04:01:25.614Z,95492.97
2023-04-27T04:03:52.400Z,95485.97
2023-04-27T04:06:19.076Z,95489.72
2023-04-27T04:08:45.951Z,95490.75
2023-04-27T04:11:12.941Z,95491.25
2023-04-27T04:13:39.643Z,95499.28
2023-04-27T04:16:09.029Z,95506.81
2023-04-27T04:18:36.683Z,95512.69
2023-04-27T04:21:05.029Z,95515.66
2023-04-27T04:23:31.948Z,95514.25
2023-04-27T04:25:59.046Z,95510.97
2023-04-27T04:28:30.326Z,95517.91
2023-04-27T04:30:57.014Z,95524.06
2023-04-27T04:33:23.975Z,95522.09
2023-04-27T04:35:50.704Z,95523.94
2023-04-27T04:38:18.428Z,95532.78
2023-04-27T04:40:46.130Z,95540.22
2023-04-27T04:43:12.900Z,95544.47
2023-04-27T04:45:39.575Z,95542.19
2023-04-27T04:48:06.396Z,95542.66
2023-04-27T04:50:33.023Z,95537.16
2023-04-27T04:52:59.788Z,95551.66
2023-04-27T04:55:26.932Z,95551.63
2023-04-27T04:57:54.054Z,95549.94
2023-04-27T05:00:20.978Z,95551.47
2023-04-27T05:02:47.727Z,95544.09
2023-04-27T05:05:14.548Z,95541.31
2023-04-27T05:07:41.540Z,95545.56
2023-04-27T05:10:11.248Z,95549.50
2023-04-27T05:12:44.344Z,95549.44
2023-04-27T05:15:12.168Z,95542.03
2023-04-27T05:17:39.081Z,95548.16
2023-04-27T05:20:06.759Z,95549.19
2023-04-27T05:22:33.318Z,95552.88
2023-04-27T05:24:59.947Z,95554.41
2023-04-27T05:27:26.597Z,95554.31
2023-04-27T05:29:53.199Z,95545.03
2023-04-27T05:32:19.750Z,95553.88
2023-04-27T05:34:49.297Z,95539.16
2023-04-27T05:37:16.251Z,95551.78
2023-04-27T05:39:42.961Z,95545.47
2023-04-27T05:42:09.606Z,95549.69
2023-04-27T05:44:36.427Z,95550.41
2023-04-27T05:47:03.038Z,95543.22
2023-04-27T05:49:29.748Z,95552.53
2023-04-27T05:51:56.371Z,95549.63
2023-04-27T05:54:23.112Z,95550.53
2023-04-27T05:56:49.852Z,95562.44
2023-04-27T05:59:16.653Z,95567.63
2023-04-27T06:01:43.750Z,95561.53
2023-04-27T06:04:10.598Z,95571.03
2023-04-27T06:06:37.241Z,95567.81
2023-04-27T06:09:03.863Z,95565.38
2023-04-27T06:11:30.590Z,95562.41
2023-04-27T06:13:57.219Z,95568.13
2023-04-27T06:16:24.037Z,95556.25
2023-04-27T06:18:50.999Z,95564.16
2023-04-27T06:21:18.061Z,95573.34
2023-04-27T06:23:44.847Z,95563.03
2023-04-27T06:26:11.621Z,95561.66
2023-04-27T06:28:38.452Z,95560.78
2023-04-27T06:31:05.649Z,95569.47
2023-04-27T06:33:32.369Z,95575.13
2023-04-27T06:36:00.434Z,95576.44
2023-04-27T06:38:27.028Z,95576.13
2023-04-27T06:40:53.574Z,95577.78
2023-04-27T06:43:20.209Z,95575.59
2023-04-27T06:45:46.930Z,95583.13
2023-04-27T06:48:13.620Z,95584.47
2023-04-27T06:50:40.206Z,95574.09
2023-04-27T06:53:06.851Z,95575.41
2023-04-27T06:55:33.402Z,95566.13
2023-04-27T06:58:00.152Z,95572.06
2023-04-27T07:00:27.173Z,95572.53
2023-04-27T07:02:53.966Z,95571.91
2023-04-27T07:05:20.735Z,95577.81
2023-04-27T07:07:47.507Z,95579.41
2023-04-27T07:10:14.341Z,95571.06
2023-04-27T07:12:42.908Z,95571.88
2023-04-27T07:15:10.395Z,95576.03
2023-04-27T07:17:37.026Z,95565.56
2023-04-27T07:20:05.118Z,95573.72
2023-04-27T07:22:32.585Z,95565.84
2023-04-27T07:24:59.146Z,95561.53
2023-04-27T07:27:25.728Z,95563.75
2023-04-27T07:29:52.602Z,95561.47
2023-04-27T07:32:19.299Z,95559.97
2023-04-27T07:34:53.641Z,95567.78
2023-04-27T07:37:21.861Z,95567.41
2023-04-27T07:39:51.942Z,95570.09
2023-04-27T07:42:19.579Z,95570.19
2023-04-27T07:44:46.289Z,95565.94
2023-04-27T07:47:12.870Z,95565.88
2023-04-27T07:49:39.495Z,95568.22
2023-04-27T07:52:06.109Z,95571.66
2023-04-27T07:54:32.665Z,95571.28
2023-04-27T07:56:59.310Z,95568.47
2023-04-27T07:59:29.395Z,95580.47
2023-04-27T08:02:07.175Z,95575.72
2023-04-27T08:04:43.107Z,95573.72
2023-04-27T08:07:10.652Z,95578.19
2023-04-27T08:09:37.574Z,95580.69
2023-04-27T08:12:04.646Z,95576.97
2023-04-27T08:14:31.210Z,95586.88
2023-04-27T08:16:57.986Z,95589.03
2023-04-27T08:19:24.777Z,95589.31
2023-04-27T08:21:51.350Z,95584.88
2023-04-27T08:24:17.982Z,95580.44
2023-04-27T08:26:44.647Z,95577.97
2023-04-27T08:29:23.687Z,95582.97
2023-04-27T08:31:56.413Z,95575.38
2023-04-27T08:34:23.605Z,95579.81
2023-04-27T08:36:50.367Z,95583.78
2023-04-27T08:39:17.383Z,95586.66
2023-04-27T08:41:44.065Z,95584.41
2023-04-27T08:44:10.800Z,95584.84
2023-04-27T08:46:38.082Z,95586.91
2023-04-27T08:49:05.051Z,95590.09
2023-04-27T08:51:32.820Z,95588.53
2023-04-27T08:53:59.779Z,95593.41
2023-04-27T08:56:28.668Z,95585.66
2023-04-27T08:58:56.973Z,95585.41
2023-04-27T09:01:24.975Z,95588.03
2023-04-27T09:03:59.989Z,95587.72
2023-04-27T09:06:34.869Z,95581.66
2023-04-27T09:09:03.095Z,95578.13
2023-04-27T09:11:33.532Z,95583.94
2023-04-27T09:14:03.093Z,95575.06
2023-04-27T09:16:31.230Z,95571.50
2023-04-27T09:18:58.818Z,95569.25
2023-04-27T09:21:30.224Z,95572.75
2023-04-27T09:23:57.473Z,95571.03
2023-04-27T09:26:27.982Z,95569.19
2023-04-27T09:28:56.085Z,95570.56
2023-04-27T09:31:30.727Z,95565.31
2023-04-27T09:33:57.375Z,95556.06
2023-04-27T09:36:25.284Z,95559.56
2023-04-27T09:38:52.896Z,95551.56
2023-04-27T09:41:20.118Z,95555.75
2023-04-27T09:43:47.168Z,95555.28
2023-04-27T09:46:14.624Z,95551.34
2023-04-27T09:48:42.539Z,95552.88
2023-04-27T09:51:09.254Z,95540.63
2023-04-27T09:53:54.121Z,95538.88
2023-04-27T09:56:51.028Z,95534.72
2023-04-27T09:59:39.094Z,95536.41
2023-04-27T10:02:20.810Z,95531.09
2023-04-27T10:05:10.846Z,95526.16
2023-04-27T10:07:39.730Z,95528.69
2023-04-27T10:10:06.717Z,95532.25
2023-04-27T10:12:36.879Z,95529.06
2023-04-27T10:15:15.471Z,95522.16
2023-04-27T10:17:52.355Z,95529.13
2023-04-27T10:20:29.800Z,95529.75
2023-04-27T10:22:56.565Z,95511.97
2023-04-27T10:25:28.908Z,95516.69
2023-04-27T10:27:57.830Z,95513.50
2023-04-27T10:30:27.122Z,95516.50
2023-04-27T10:32:56.254Z,95511.81
2023-04-27T10:35:33.568Z,95503.94
2023-04-27T10:38:10.336Z,95506.59
2023-04-27T10:40:38.313Z,95494.59
2023-04-27T10:43:16.233Z,95512.25
2023-04-27T10:45:46.207Z,95510.84
2023-04-27T10:48:14.132Z,95518.28
2023-04-27T10:50:41.442Z,95505.28
2023-04-27T10:53:08.554Z,95513.06
2023-04-27T10:55:36.291Z,95504.56
2023-04-27T10:58:02.869Z,95500.94
2023-04-27T11:00:35.302Z,95504.56
2023-04-27T11:03:20.010Z,95505.28
2023-04-27T11:05:47.910Z,95504.56
2023-04-27T11:08:16.951Z,95499.44
2023-04-27T11:10:45.576Z,95497.13
2023-04-27T11:13:15.099Z,95503.66
2023-04-27T11:15:49.573Z,95501.38
2023-04-27T11:18:17.539Z,95498.72
2023-04-27T11:20:47.834Z,95495.44
2023-04-27T11:23:28.075Z,95507.03
2023-04-27T11:25:55.753Z,95502.47
2023-04-27T11:28:23.560Z,95499.25
2023-04-27T11:30:59.699Z,95499.94
2023-04-27T11:33:27.407Z,95505.34
2023-04-27T11:35:54.597Z,95500.91
2023-04-27T11:38:21.402Z,95508.34
2023-04-27T11:40:58.898Z,95507.09
2023-04-27T11:43:26.273Z,95510.31
2023-04-27T11:45:52.980Z,95504.97
2023-04-27T11:48:20.160Z,95522.00
2023-04-27T11:50:47.639Z,95519.69
2023-04-27T11:53:15.552Z,95518.19
2023-04-27T11:55:43.445Z,95516.22
2023-04-27T11:58:16.660Z,95517.72
2023-04-27T12:00:43.618Z,95515.09
2023-04-27T12:03:10.384Z,95512.06
2023-04-27T12:05:47.848Z,95515.66
2023-04-27T12:08:14.513Z,95520.06
2023-04-27T12:10:41.140Z,95521.25
2023-04-27T12:13:07.891Z,95522.47
2023-04-27T12:15:34.509Z,95526.16
2023-04-27T12:18:01.309Z,95518.72
2023-04-27T12:20:28.074Z,95522.00
2023-04-27T12:22:54.985Z,95515.13
2023-04-27T12:25:21.708Z,95511.38
2023-04-27T12:27:48.289Z,95512.34
2023-04-27T12:30:15.255Z,95512.03
2023-04-27T12:32:42.035Z,95522.75
2023-04-27T12:35:09.855Z,95517.69
2023-04-27T12:37:37.054Z,95527.88
2023-04-27T12:40:03.935Z,95520.78
2023-04-27T12:42:30.586Z,95521.22
2023-04-27T12:44:57.244Z,95520.06
2023-04-27T12:49:53.509Z,95522.59
2023-04-27T12:52:20.154Z,95517.34
2023-04-27T12:54:46.700Z,95518.63
2023-04-27T12:57:13.358Z,95511.69
2023-04-27T12:59:40.110Z,95513.28
2023-04-27T13:02:06.836Z,95511.75
2023-04-27T13:04:33.620Z,95513.78
2023-04-27T13:07:00.421Z,95509.78
2023-04-27T13:09:27.829Z,95515.00
2023-04-27T13:11:54.635Z,95508.78
2023-04-27T13:14:21.369Z,95506.22
2023-04-27T13:16:48.393Z,95509.53
2023-04-27T13:19:15.207Z,95509.16
2023-04-27T13:21:41.861Z,95505.69
2023-04-27T13:24:08.500Z,95491.56
2023-04-27T13:26:35.127Z,95495.97
2023-04-27T13:29:01.840Z,95491.69
2023-04-27T13:31:28.461Z,95485.94
2023-04-27T13:33:55.081Z,95488.13
2023-04-27T13:36:21.724Z,95488.59
2023-04-27T13:38:49.876Z,95489.50
2023-04-27T13:41:19.211Z,95496.06
2023-04-27T13:43:45.945Z,95492.41
2023-04-27T13:46:12.596Z,95494.31
2023-04-27T13:48:39.176Z,95494.56
2023-04-27T13:51:05.865Z,95492.84
2023-04-27T13:53:32.468Z,95502.56
2023-04-27T13:55:59.050Z,95500.91
2023-04-27T13:58:27.771Z,95497.75
2023-04-27T14:00:55.381Z,95491.09
2023-04-27T14:03:22.233Z,95498.78
2023-04-27T14:05:49.212Z,95487.66
2023-04-27T14:08:15.876Z,95488.38
2023-04-27T14:10:42.737Z,95487.09
2023-04-27T14:13:09.372Z,95485.06
2023-04-27T14:15:36.158Z,95483.06
2023-04-27T14:18:07.155Z,95491.22
2023-04-27T14:20:37.590Z,95487.28
2023-04-27T14:23:06.659Z,95488.06
2023-04-27T14:25:33.449Z,95477.06
2023-04-27T14:28:05.039Z,95479.47
2023-04-27T14:30:32.852Z,95478.38
2023-04-27T14:32:59.754Z,95474.94
2023-04-27T14:35:27.547Z,95469.97
2023-04-27T14:37:54.254Z,95476.72
2023-04-27T14:40:20.841Z,95468.19
2023-04-27T14:42:47.493Z,95468.28
2023-04-27T14:45:14.704Z,95469.63
2023-04-27T14:47:41.388Z,95465.97
2023-04-27T14:50:08.455Z,95468.19
2023-04-27T14:52:35.150Z,95470.41
2023-04-27T14:55:01.847Z,95454.16
2023-04-27T14:57:28.433Z,95454.84
2023-04-27T14:59:55.100Z,95450.03
2023-04-27T15:02:21.865Z,95443.97
2023-04-27T15:04:48.552Z,95448.03
2023-04-27T15:07:15.313Z,95447.69
2023-04-27T15:09:41.876Z,95448.56
2023-04-27T15:12:10.276Z,95449.38
2023-04-27T15:14:36.827Z,95457.19
2023-04-27T15:17:03.442Z,95448.53
2023-04-27T15:19:30.270Z,95451.63
2023-04-27T15:21:56.854Z,95451.25
2023-04-27T15:24:23.442Z,95448.03
2023-04-27T15:26:50.125Z,95455.78
2023-04-27T15:29:17.246Z,95450.59
2023-04-27T15:31:43.963Z,95455.19
2023-04-27T15:34:10.568Z,95452.78
2023-04-27T15:36:37.255Z,95446.56
2023-04-27T15:39:03.905Z,95447.13
2023-04-27T15:41:30.465Z,95446.91
2023-04-27T15:43:57.028Z,95436.88
2023-04-27T15:46:23.634Z,95443.25
2023-04-27T15:48:50.287Z,95443.69
2023-04-27T15:51:16.880Z,95442.94
2023-04-27T15:53:43.460Z,95440.66
2023-04-27T15:56:10.142Z,95437.53
2023-04-27T15:58:36.713Z,95438.81
2023-04-27T16:01:03.380Z,95434.44
2023-04-27T16:03:30.128Z,95433.34
2023-04-27T16:05:56.769Z,95429.84
2023-04-27T16:08:23.348Z,95424.03
2023-04-27T16:10:50.017Z,95420.16
2023-04-27T16:13:16.561Z,95424.13
2023-04-27T16:15:43.188Z,95426.97
2023-04-27T16:18:09.936Z,95429.38
2023-04-27T16:20:36.786Z,95430.63
2023-04-27T16:23:03.434Z,95438.97
2023-04-27T16:25:30.052Z,95433.88
2023-04-27T16:27:58.783Z,95435.53
2023-04-27T16:30:25.492Z,95434.34
2023-04-27T16:32:52.861Z,95437.50
2023-04-27T16:35:19.533Z,95433.56
2023-04-27T16:37:46.182Z,95423.66
2023-04-27T16:40:12.979Z,95431.91
2023-04-27T16:42:39.544Z,95437.72
2023-04-27T16:45:09.072Z,95432.13
2023-04-27T16:47:37.260Z,95444.97
2023-04-27T16:50:04.263Z,95435.75
2023-04-27T16:52:30.971Z,95427.69
2023-04-27T16:54:57.641Z,95437.66
2023-04-27T16:57:24.202Z,95434.34
2023-04-27T16:59:50.823Z,95431.44
2023-04-27T17:02:24.566Z,95430.94
2023-04-27T17:04:53.180Z,95435.72
2023-04-27T17:07:19.940Z,95436.75
2023-04-27T17:09:46.604Z,95433.03
2023-04-27T17:12:13.238Z,95422.22
2023-04-27T17:14:39.945Z,95422.38
2023-04-27T17:17:06.812Z,95422.47
2023-04-27T17:19:33.481Z,95424.88
2023-04-27T17:22:00.287Z,95421.00
2023-04-27T17:24:27.185Z,95415.88
2023-04-27T17:26:53.834Z,95419.75
2023-04-27T17:29:20.491Z,95419.66
2023-04-27T17:31:47.297Z,95418.34
2023-04-27T17:34:13.971Z,95419.78
2023-04-27T17:36:40.536Z,95418.47
2023-04-27T17:39:07.104Z,95415.56
2023-04-27T17:41:35.476Z,95423.31
2023-04-27T17:44:03.454Z,95422.06
2023-04-27T17:46:30.197Z,95421.53
2023-04-27T17:48:57.218Z,95422.13
2023-04-27T17:51:23.772Z,95417.97
2023-04-27T17:53:50.324Z,95423.66
2023-04-27T17:56:19.372Z,95428.06
2023-04-27T17:58:49.180Z,95432.81
2023-04-27T18:01:15.876Z,95433.66
2023-04-27T18:03:42.596Z,95433.66
2023-04-27T18:06:09.341Z,95430.13
2023-04-27T18:08:35.906Z,95440.72
2023-04-27T18:11:02.653Z,95439.50
2023-04-27T18:13:29.271Z,95448.13
2023-04-27T18:15:55.976Z,95441.03
2023-04-27T18:18:25.266Z,95441.47
2023-04-27T18:20:52.129Z,95444.94
2023-04-27T18:23:18.741Z,95445.31
2023-04-27T18:25:45.302Z,95448.09
2023-04-27T18:28:12.283Z,95450.47
2023-04-27T18:30:38.950Z,95445.38
2023-04-27T18:33:05.748Z,95448.09
2023-04-27T18:35:32.453Z,95450.78
2023-04-27T18:37:59.117Z,95452.69
2023-04-27T18:40:25.863Z,95455.84
2023-04-27T18:42:53.181Z,95453.84
2023-04-27T18:45:20.099Z,95459.25
2023-04-27T18:47:46.997Z,95464.31
2023-04-27T18:50:13.759Z,95479.59
2023-04-27T18:52:40.331Z,95469.03
2023-04-27T18:55:08.809Z,95473.34
2023-04-27T18:57:35.400Z,95475.28
2023-04-27T19:00:02.543Z,95484.63
2023-04-27T19:02:29.211Z,95483.47
2023-04-27T19:05:11.388Z,95487.78
2023-04-27T19:07:40.120Z,95487.78
2023-04-27T19:10:07.636Z,95489.81
2023-04-27T19:12:34.280Z,95487.84
2023-04-27T19:15:00.863Z,95487.94
2023-04-27T19:17:27.824Z,95500.09
2023-04-27T19:19:54.532Z,95498.56
2023-04-27T19:22:21.206Z,95497.34
2023-04-27T19:24:48.209Z,95495.81
2023-04-27T19:27:14.901Z,95492.38
2023-04-27T19:29:55.670Z,95495.06
2023-04-27T19:32:23.789Z,95504.06
2023-04-27T19:34:50.520Z,95495.19
2023-04-27T19:37:17.544Z,95501.47
2023-04-27T19:39:44.113Z,95491.44
2023-04-27T19:42:10.860Z,95499.34
2023-04-27T19:44:37.434Z,95495.53
2023-04-27T19:47:04.027Z,95488.69
2023-04-27T19:49:31.839Z,95484.88
2023-04-27T19:51:59.409Z,95488.13
2023-04-27T19:54:26.176Z,95488.63
2023-04-27T19:56:52.928Z,95498.91
2023-04-27T19:59:19.688Z,95495.06
2023-04-27T20:01:46.651Z,95495.56
2023-04-27T20:04:13.511Z,95494.16
2023-04-27T20:06:40.703Z,95495.44
2023-04-27T20:09:07.288Z,95492.91
2023-04-27T20:11:33.850Z,95501.25
2023-04-27T20:14:00.530Z,95499.84
2023-04-27T20:16:27.104Z,95499.22
2023-04-27T20:18:53.870Z,95500.97
2023-04-27T20:21:20.510Z,95500.66
2023-04-27T20:23:50.273Z,95504.72
2023-04-27T20:26:16.918Z,95496.69
2023-04-27T20:28:44.001Z,95504.25
2023-04-27T20:31:10.745Z,95501.69
2023-04-27T20:33:37.418Z,95495.59
2023-04-27T20:36:14.047Z,95490.34
2023-04-27T20:38:43.804Z,95490.16
2023-04-27T20:41:10.540Z,95479.78
2023-04-27T20:43:37.091Z,95482.34
2023-04-27T20:46:04.047Z,95482.53
2023-04-27T20:48:30.652Z,95488.13
2023-04-27T20:50:57.301Z,95479.47
2023-04-27T20:53:23.892Z,95482.81
2023-04-27T20:55:50.618Z,95472.59
2023-04-27T20:58:17.177Z,95479.81
2023-04-27T21:00:43.897Z,95481.22
2023-04-27T21:03:11.178Z,95486.50
2023-04-27T21:05:38.003Z,95487.16
2023-04-27T21:08:04.544Z,95476.44
2023-04-27T21:10:31.270Z,95474.03
2023-04-27T21:12:57.832Z,95470.00
2023-04-27T21:15:24.587Z,95470.63
2023-04-27T21:17:51.510Z,95468.25
2023-04-27T21:20:18.256Z,95468.88
2023-04-27T21:22:44.951Z,95462.50
2023-04-27T21:25:11.589Z,95466.63
2023-04-27T21:27:38.139Z,95468.06
2023-04-27T21:30:05.586Z,95471.13
2023-04-27T21:32:32.326Z,95473.66
2023-04-27T21:34:58.954Z,95474.78
2023-04-27T21:37:25.750Z,95473.50
2023-04-27T21:39:52.369Z,95464.06
2023-04-27T21:42:18.924Z,95468.22
2023-04-27T21:44:45.607Z,95468.84
2023-04-27T21:47:12.203Z,95457.50
2023-04-27T21:49:38.940Z,95466.28
2023-04-27T21:52:05.540Z,95466.91
2023-04-27T21:54:32.278Z,95463.69
2023-04-27T21:56:58.943Z,95455.06
2023-04-27T21:59:25.574Z,95460.03
2023-04-27T22:01:52.360Z,95453.78
2023-04-27T22:04:19.622Z,95449.81
2023-04-27T22:06:46.527Z,95445.47
2023-04-27T22:09:13.386Z,95443.91
2023-04-27T22:14:44.337Z,95442.91
2023-04-27T22:17:11.036Z,95450.28
2023-04-27T22:19:37.669Z,95448.66
2023-04-27T22:22:04.387Z,95443.53
2023-04-27T22:24:31.112Z,95445.47
2023-04-27T22:26:57.794Z,95442.25
2023-04-27T22:29:24.388Z,95445.28
2023-04-27T22:31:51.450Z,95452.31
2023-04-27T22:34:18.332Z,95455.03
2023-04-27T22:36:45.381Z,95458.84
2023-04-27T22:39:12.153Z,95450.72
2023-04-27T22:41:38.933Z,95457.28
2023-04-27T22:44:05.510Z,95447.22
2023-04-27T22:46:32.149Z,95440.16
2023-04-27T22:48:58.862Z,95441.00
2023-04-27T22:51:25.445Z,95444.00
2023-04-27T22:53:52.153Z,95441.31
2023-04-27T22:56:19.200Z,95438.59
2023-04-27T22:58:45.811Z,95441.31
2023-04-27T23:01:12.884Z,95443.19
2023-04-27T23:03:39.534Z,95433.47
2023-04-27T23:06:06.419Z,95431.56
2023-04-27T23:08:33.142Z,95435.06
2023-04-27T23:10:59.803Z,95422.31
2023-04-27T23:13:26.449Z,95425.81
2023-04-27T23:15:53.872Z,95427.09
2023-04-27T23:18:21.208Z,95425.81
2023-04-27T23:20:52.730Z,95416.06
2023-04-27T23:23:19.443Z,95407.59
2023-04-27T23:25:46.223Z,95417.34
2023-04-27T23:28:12.800Z,95410.00
2023-04-27T23:30:39.556Z,95410.00
2023-04-27T23:33:06.237Z,95406.50
2023-04-27T23:35:32.932Z,95409.69
2023-04-27T23:37:59.712Z,95408.91
2023-04-27T23:40:26.278Z,95408.09
2023-04-27T23:42:52.831Z,95407.28
2023-04-27T23:45:19.434Z,95405.41
2023-04-27T23:47:46.082Z,95404.56
2023-04-27T23:50:12.783Z,95398.84
2023-04-27T23:52:39.345Z,95398.03
2023-04-27T23:55:06.596Z,95398.03
2023-04-27T23:57:33.199Z,95389.44
